Terminal Aerodrome Forecast
Issued by NWS Cleveland, OH

Home | Current Version | Previous Version | Graphics & Text | Print | Product List | Glossary On
Versions: 1 2 3 4 5 6 7 8 9 10 11 12 13 14 15 16 17 18 19 20 21 22
746
FTUS41 KCLE 140430 AAA
TAFTOL
TAF AMD
KTOL 140430Z 1405/1424 04012KT 3SM -SN OVC020
      TEMPO 1405/1407 1 1/2SM -SN OVC015
     FM140700 35014KT P6SM OVC035
     FM141500 33009KT P6SM SCT035=

USA.gov is the U.S. government's official web portal to all federal, state and local government web resources and services.